createdAt,value
2022-12-15T00:01:09.678Z,99328.59
2022-12-15T00:06:29.946Z,99337.22
2022-12-15T00:11:51.378Z,99336.88
2022-12-15T00:17:11.567Z,99340.13
2022-12-15T00:22:31.634Z,99351.66
2022-12-15T00:27:52.793Z,99347.81
2022-12-15T00:33:13.145Z,99352.41
2022-12-15T00:38:33.769Z,99359.13
2022-12-15T00:43:37.991Z,99365.78
2022-12-15T00:48:43.573Z,99358.75
2022-12-15T00:54:03.740Z,99358.78
2022-12-15T00:59:25.862Z,99380.66
2022-12-15T01:04:46.572Z,99384.41
2022-12-15T01:10:07.012Z,99399.97
2022-12-15T01:15:29.070Z,99403.34
2022-12-15T01:20:34.601Z,99405.84
2022-12-15T01:25:39.032Z,99407.94
2022-12-15T01:30:42.967Z,99411.47
2022-12-15T01:35:45.608Z,99406.09
2022-12-15T01:40:51.799Z,99416.75
2022-12-15T01:45:57.777Z,99411.59
2022-12-15T01:51:03.343Z,99412.59
2022-12-15T01:56:06.928Z,99420.34
2022-12-15T02:01:11.360Z,99425.69
2022-12-15T02:06:19.105Z,99438.19
2022-12-15T02:11:33.496Z,99447.31
2022-12-15T02:16:44.927Z,99447.13
2022-12-15T02:21:50.866Z,99447.97
2022-12-15T02:27:03.890Z,99453.66
2022-12-15T02:32:16.005Z,99451.00
2022-12-15T02:37:24.081Z,99456.47
2022-12-15T02:42:27.899Z,99458.53
2022-12-15T02:47:37.936Z,99479.44
2022-12-15T02:52:53.787Z,99484.34
2022-12-15T02:58:04.865Z,99494.56
2022-12-15T03:03:09.665Z,99504.22
2022-12-15T03:08:12.192Z,99514.75
2022-12-15T03:13:15.120Z,99512.47
2022-12-15T03:18:19.037Z,99507.97
2022-12-15T03:23:23.070Z,99512.91
2022-12-15T03:28:25.600Z,99516.84
2022-12-15T03:33:29.842Z,99518.88
2022-12-15T03:38:32.736Z,99526.09
2022-12-15T03:43:35.364Z,99527.47
2022-12-15T03:48:39.312Z,99537.50
2022-12-15T03:53:41.878Z,99532.47
2022-12-15T03:58:47.379Z,99541.66
2022-12-15T04:03:55.514Z,99535.75
2022-12-15T04:09:01.107Z,99546.19
2022-12-15T04:14:04.712Z,99557.44
2022-12-15T04:19:26.698Z,99563.56
2022-12-15T04:24:47.820Z,99562.63
2022-12-15T04:30:08.088Z,99556.72
2022-12-15T04:35:30.362Z,99562.19
2022-12-15T04:40:50.722Z,99580.94
2022-12-15T04:46:10.896Z,99588.53
2022-12-15T04:51:32.261Z,99593.53
2022-12-15T04:56:52.231Z,99600.47
2022-12-15T05:02:12.216Z,99603.25
2022-12-15T05:07:33.838Z,99597.00
2022-12-15T05:12:54.043Z,99594.56
2022-12-15T05:18:14.306Z,99595.47
2022-12-15T05:23:36.026Z,99607.69
2022-12-15T05:28:56.232Z,99615.38
2022-12-15T05:34:04.917Z,99628.75
2022-12-15T05:39:09.677Z,99621.91
2022-12-15T05:44:12.472Z,99630.34
2022-12-15T05:49:16.204Z,99640.31
2022-12-15T05:54:20.947Z,99655.28
2022-12-15T05:59:23.679Z,99661.09
2022-12-15T06:04:26.313Z,99651.47
2022-12-15T06:09:30.475Z,99672.28
2022-12-15T06:14:32.985Z,99673.53
2022-12-15T06:19:35.516Z,99684.72
2022-12-15T06:24:39.410Z,99680.59
2022-12-15T06:29:41.846Z,99701.94
2022-12-15T06:34:44.751Z,99705.47
2022-12-15T06:39:48.768Z,99714.22
2022-12-15T06:44:51.214Z,99726.25
2022-12-15T06:49:53.806Z,99721.53
2022-12-15T06:54:58.033Z,99731.00
2022-12-15T07:00:01.927Z,99726.25
2022-12-15T07:05:05.688Z,99726.28
2022-12-15T07:10:11.167Z,99733.44
2022-12-15T07:15:13.915Z,99727.78
2022-12-15T07:20:16.540Z,99739.78
2022-12-15T07:25:20.833Z,99740.88
2022-12-15T07:30:26.031Z,99735.75
2022-12-15T07:35:28.667Z,99750.19
2022-12-15T07:40:32.492Z,99747.31
2022-12-15T07:45:35.111Z,99757.00
2022-12-15T07:50:37.891Z,99767.38
2022-12-15T07:56:05.611Z,99768.22
2022-12-15T08:01:06.078Z,99771.13
2022-12-15T08:06:10.017Z,99782.03
2022-12-15T08:11:14.883Z,99796.69
2022-12-15T08:16:17.403Z,99804.19
2022-12-15T08:21:20.238Z,99817.09
2022-12-15T08:26:30.086Z,99811.78
2022-12-15T08:31:33.880Z,99806.19
2022-12-15T08:36:36.418Z,99805.28
2022-12-15T08:41:41.645Z,99809.13
2022-12-15T08:46:44.258Z,99808.84
2022-12-15T08:51:46.948Z,99800.53
2022-12-15T08:56:54.618Z,99815.72
2022-12-15T09:01:57.325Z,99810.81
2022-12-15T09:07:00.486Z,99818.16
2022-12-15T09:12:04.502Z,99814.84
2022-12-15T09:17:07.654Z,99808.78
2022-12-15T09:22:10.491Z,99820.06
2022-12-15T09:26:02.128Z,99822.22
2022-12-15T09:27:04.703Z,99814.88
2022-12-15T09:28:07.512Z,99808.81
2022-12-15T09:29:12.782Z,99811.72
2022-12-15T09:30:15.908Z,99815.72
2022-12-15T09:31:21.199Z,99807.13
2022-12-15T09:32:23.969Z,99806.63
2022-12-15T09:33:26.932Z,99805.59
2022-12-15T09:34:29.913Z,99812.59
2022-12-15T09:35:32.569Z,99810.69
2022-12-15T09:36:35.707Z,99811.91
2022-12-15T09:37:38.130Z,99818.84
2022-12-15T09:38:42.478Z,99814.13
2022-12-15T09:39:45.744Z,99825.22
2022-12-15T09:40:49.998Z,99824.50
2022-12-15T09:41:57.285Z,99819.06
2022-12-15T09:43:25.613Z,99814.81
2022-12-15T09:44:23.762Z,99813.75
2022-12-15T09:45:33.941Z,99819.75
2022-12-15T09:46:59.986Z,99818.28
2022-12-15T09:48:05.932Z,99819.72
2022-12-15T09:49:15.150Z,99829.28
2022-12-15T09:50:21.126Z,99831.97
2022-12-15T09:51:34.267Z,99839.09
2022-12-15T09:52:49.043Z,99829.03
2022-12-15T09:53:56.189Z,99833.44
2022-12-15T09:55:01.606Z,99840.31
2022-12-15T09:56:08.113Z,99846.19
2022-12-15T09:57:20.990Z,99846.91
2022-12-15T09:58:40.617Z,99851.22
2022-12-15T09:59:59.907Z,99862.25
2022-12-15T10:01:13.619Z,99864.22
2022-12-15T10:02:36.602Z,99862.09
2022-12-15T10:03:52.175Z,99859.75
2022-12-15T10:05:05.336Z,99860.59
2022-12-15T10:06:16.665Z,99869.31
2022-12-15T10:07:29.820Z,99869.78
2022-12-15T10:08:36.603Z,99865.44
2022-12-15T10:09:39.534Z,99867.00
2022-12-15T10:10:51.050Z,99864.31
2022-12-15T10:11:58.794Z,99864.47
2022-12-15T10:13:10.684Z,99877.66
2022-12-15T10:14:23.859Z,99878.25
2022-12-15T10:15:29.449Z,99865.38
2022-12-15T10:16:38.651Z,99857.78
2022-12-15T10:17:50.300Z,99858.63
2022-12-15T10:19:01.960Z,99864.13
2022-12-15T10:20:15.572Z,99864.75
2022-12-15T10:21:17.425Z,99865.69
2022-12-15T10:22:24.213Z,99863.91
2022-12-15T10:23:26.034Z,99867.03
2022-12-15T10:25:08.076Z,99862.56
2022-12-15T10:26:00.753Z,99863.28
2022-12-15T10:27:16.482Z,99860.03
2022-12-15T10:29:00.289Z,99862.50
2022-12-15T10:30:05.542Z,99850.72
2022-12-15T10:31:16.255Z,99846.22
2022-12-15T10:32:20.501Z,99844.69
2022-12-15T10:33:26.265Z,99847.53
2022-12-15T10:34:30.541Z,99858.47
2022-12-15T10:35:35.091Z,99845.97
2022-12-15T10:36:37.020Z,99852.56
2022-12-15T10:37:40.112Z,99857.34
2022-12-15T10:38:45.428Z,99855.63
2022-12-15T10:39:50.229Z,99858.66
2022-12-15T10:40:59.550Z,99861.84
2022-12-15T10:42:14.895Z,99863.19
2022-12-15T10:43:35.695Z,99866.19
2022-12-15T10:44:41.473Z,99868.44
2022-12-15T10:45:44.705Z,99871.06
2022-12-15T10:46:47.283Z,99869.84
2022-12-15T10:47:58.977Z,99869.44
2022-12-15T10:49:23.042Z,99874.69
2022-12-15T10:50:27.591Z,99863.41
2022-12-15T10:51:32.552Z,99857.72
2022-12-15T10:52:39.057Z,99854.97
2022-12-15T10:53:45.012Z,99855.31
2022-12-15T10:54:55.586Z,99852.91
2022-12-15T10:56:01.392Z,99853.34
2022-12-15T10:57:16.972Z,99854.75
2022-12-15T10:58:22.390Z,99852.75
2022-12-15T10:59:26.253Z,99846.78
2022-12-15T11:00:30.765Z,99854.66
2022-12-15T11:01:35.905Z,99848.91
2022-12-15T11:02:38.016Z,99864.09
2022-12-15T11:03:41.845Z,99859.19
2022-12-15T11:04:57.111Z,99856.75
2022-12-15T11:06:01.074Z,99864.53
2022-12-15T11:07:05.267Z,99862.69
2022-12-15T11:08:16.843Z,99867.41
2022-12-15T11:09:29.551Z,99862.53
2022-12-15T11:10:54.185Z,99860.81
2022-12-15T11:12:14.285Z,99864.91
2022-12-15T11:13:17.924Z,99867.56
2022-12-15T11:14:24.179Z,99864.53
2022-12-15T11:15:50.845Z,99872.22
2022-12-15T11:16:55.270Z,99866.50
2022-12-15T11:18:02.720Z,99860.81
2022-12-15T11:19:09.051Z,99865.31
2022-12-15T11:20:21.822Z,99868.22
2022-12-15T11:21:28.940Z,99871.31
2022-12-15T11:22:40.760Z,99867.19
2022-12-15T11:23:53.742Z,99863.72
2022-12-15T11:25:03.063Z,99868.63
2022-12-15T11:26:13.808Z,99868.81
2022-12-15T11:27:20.929Z,99877.25
2022-12-15T11:28:31.639Z,99877.84
2022-12-15T11:29:45.900Z,99875.13
2022-12-15T11:30:57.449Z,99878.22
2022-12-15T11:32:06.675Z,99878.06
2022-12-15T11:33:11.073Z,99873.56
2022-12-15T11:34:17.376Z,99875.63
2022-12-15T11:35:26.838Z,99874.19
2022-12-15T11:36:57.994Z,99871.53
2022-12-15T11:38:10.210Z,99872.16
2022-12-15T11:39:21.419Z,99869.81
2022-12-15T11:40:34.346Z,99873.81
2022-12-15T11:41:45.154Z,99871.47
2022-12-15T11:42:56.209Z,99876.44
2022-12-15T11:44:17.486Z,99872.28
2022-12-15T11:45:25.634Z,99864.00
2022-12-15T11:46:31.668Z,99856.06
2022-12-15T11:47:44.873Z,99856.97
2022-12-15T11:49:09.514Z,99848.72
2022-12-15T11:50:24.975Z,99839.63
2022-12-15T11:51:38.834Z,99839.69
2022-12-15T11:52:55.649Z,99839.66
2022-12-15T11:54:14.788Z,99839.66
2022-12-15T11:55:27.632Z,99838.97
2022-12-15T11:56:36.307Z,99843.19
2022-12-15T11:57:54.627Z,99845.66
2022-12-15T11:59:25.911Z,99845.41
2022-12-15T12:00:32.160Z,99840.91
2022-12-15T12:01:58.780Z,99840.50
2022-12-15T12:03:27.780Z,99836.38
2022-12-15T12:04:40.362Z,99837.81
2022-12-15T12:06:04.064Z,99841.88
2022-12-15T12:07:15.688Z,99843.97
2022-12-15T12:08:35.513Z,99841.44
2022-12-15T12:09:48.682Z,99854.25
2022-12-15T12:10:58.283Z,99850.47
2022-12-15T12:12:13.364Z,99839.44
2022-12-15T12:13:23.972Z,99848.13
2022-12-15T12:14:38.050Z,99843.75
2022-12-15T12:15:50.730Z,99839.09
2022-12-15T12:17:01.665Z,99836.41
2022-12-15T12:18:07.520Z,99834.69
2022-12-15T12:19:14.540Z,99838.06
2022-12-15T12:20:21.361Z,99841.06
2022-12-15T12:21:28.177Z,99844.63
2022-12-15T12:22:35.696Z,99839.41
2022-12-15T12:23:46.185Z,99838.88
2022-12-15T12:24:53.493Z,99834.59
2022-12-15T12:26:05.846Z,99837.25
2022-12-15T12:27:16.758Z,99838.69
2022-12-15T12:28:25.063Z,99842.66
2022-12-15T12:29:34.028Z,99846.41
2022-12-15T12:30:45.393Z,99842.47
2022-12-15T12:32:04.911Z,99842.59
2022-12-15T12:33:17.037Z,99841.66
2022-12-15T12:34:27.443Z,99844.47
2022-12-15T12:35:38.528Z,99843.84
2022-12-15T12:36:43.028Z,99851.34
2022-12-15T12:37:54.175Z,99856.59
2022-12-15T12:39:01.230Z,99848.84
2022-12-15T12:40:08.676Z,99844.34
2022-12-15T12:41:18.636Z,99834.84
2022-12-15T12:42:26.407Z,99830.91
2022-12-15T12:43:34.938Z,99835.34
2022-12-15T12:44:39.244Z,99828.31
2022-12-15T12:45:50.239Z,99837.25
2022-12-15T12:46:56.326Z,99831.59
2022-12-15T12:48:03.961Z,99824.16
2022-12-15T12:49:14.666Z,99822.44
2022-12-15T12:50:28.219Z,99817.56
2022-12-15T12:51:32.505Z,99820.56
2022-12-15T12:52:37.591Z,99820.72
2022-12-15T12:53:42.002Z,99831.44
2022-12-15T12:54:57.884Z,99826.34
2022-12-15T12:56:01.843Z,99833.22
2022-12-15T12:57:30.504Z,99838.25
2022-12-15T12:58:38.358Z,99837.69
2022-12-15T12:59:42.875Z,99842.97
2022-12-15T13:01:06.418Z,99831.03
2022-12-15T13:02:51.046Z,99837.34
2022-12-15T13:04:07.630Z,99828.41
2022-12-15T13:05:25.112Z,99819.13
2022-12-15T13:07:02.380Z,99821.91
2022-12-15T13:08:30.479Z,99821.38
2022-12-15T13:09:42.330Z,99815.19
2022-12-15T13:10:48.219Z,99833.00
2022-12-15T13:11:58.939Z,99824.06
2022-12-15T13:13:36.459Z,99824.88
2022-12-15T13:16:19.017Z,99814.81
2022-12-15T13:17:28.882Z,99823.53
2022-12-15T13:19:03.390Z,99826.75
2022-12-15T13:20:30.971Z,99828.50
2022-12-15T13:21:56.059Z,99823.59
2022-12-15T13:23:32.440Z,99831.41
2022-12-15T13:24:37.461Z,99819.88
2022-12-15T13:25:41.900Z,99827.94
2022-12-15T13:26:48.572Z,99822.75
2022-12-15T13:27:52.676Z,99822.66
2022-12-15T13:28:57.951Z,99826.78
2022-12-15T13:30:01.815Z,99828.44
2022-12-15T13:31:28.567Z,99822.00
2022-12-15T13:32:36.740Z,99825.41
2022-12-15T13:33:45.537Z,99818.28
2022-12-15T13:34:48.193Z,99820.00
2022-12-15T13:35:51.758Z,99825.66
2022-12-15T13:37:27.233Z,99818.88
2022-12-15T13:38:53.653Z,99824.31
2022-12-15T13:40:00.414Z,99828.63
2022-12-15T13:41:22.587Z,99828.78
2022-12-15T13:42:45.628Z,99821.63
2022-12-15T13:43:56.039Z,99831.97
2022-12-15T13:45:38.025Z,99818.44
2022-12-15T13:46:43.492Z,99824.94
2022-12-15T13:47:53.621Z,99817.44
2022-12-15T13:49:07.737Z,99818.63
2022-12-15T13:50:15.258Z,99813.59
2022-12-15T13:51:25.048Z,99811.72
2022-12-15T13:53:16.339Z,99821.44
2022-12-15T13:53:59.364Z,99811.84
2022-12-15T13:55:03.519Z,99819.38
2022-12-15T13:56:35.014Z,99818.06
2022-12-15T13:57:52.526Z,99824.63
2022-12-15T13:59:02.487Z,99819.28
2022-12-15T14:00:18.327Z,99821.13
2022-12-15T14:01:32.765Z,99819.22
2022-12-15T14:02:37.928Z,99818.63
2022-12-15T14:03:40.841Z,99814.94
2022-12-15T14:04:43.450Z,99821.28
2022-12-15T14:05:51.206Z,99814.16
2022-12-15T14:06:56.011Z,99813.72
2022-12-15T14:08:00.760Z,99814.72
2022-12-15T14:09:03.911Z,99817.81
2022-12-15T14:10:16.811Z,99812.81
2022-12-15T14:11:51.219Z,99811.16
2022-12-15T14:12:52.021Z,99821.50
2022-12-15T14:13:54.715Z,99816.81
2022-12-15T14:14:57.457Z,99825.97
2022-12-15T14:16:04.038Z,99825.38
2022-12-15T14:17:09.694Z,99833.34
2022-12-15T14:18:26.719Z,99835.34
2022-12-15T14:19:38.842Z,99834.56
2022-12-15T14:20:42.121Z,99835.13
2022-12-15T14:21:50.361Z,99839.78
2022-12-15T14:22:54.459Z,99844.34
2022-12-15T14:24:36.343Z,99846.09
2022-12-15T14:25:23.598Z,99837.84
2022-12-15T14:26:30.722Z,99832.44
2022-12-15T14:27:34.822Z,99836.88
2022-12-15T14:28:40.501Z,99835.53
2022-12-15T14:29:42.091Z,99830.25
2022-12-15T14:30:44.810Z,99830.91
2022-12-15T14:31:51.633Z,99828.53
2022-12-15T14:32:58.879Z,99830.13
2022-12-15T14:34:04.611Z,99837.47
2022-12-15T14:35:13.802Z,99829.66
2022-12-15T14:36:18.622Z,99827.09
2022-12-15T14:37:21.107Z,99832.94
2022-12-15T14:38:27.365Z,99836.78
2022-12-15T14:39:37.016Z,99833.28
2022-12-15T14:40:42.380Z,99829.06
2022-12-15T14:41:48.925Z,99831.59
2022-12-15T14:42:53.986Z,99830.56
2022-12-15T14:44:36.196Z,99833.38
2022-12-15T14:45:32.189Z,99827.91
2022-12-15T14:46:35.099Z,99838.19
2022-12-15T14:47:37.189Z,99835.78
2022-12-15T14:48:43.015Z,99831.03
2022-12-15T14:49:48.106Z,99836.53
2022-12-15T14:50:51.252Z,99834.75
2022-12-15T14:52:02.787Z,99834.22
2022-12-15T14:53:14.361Z,99835.22
2022-12-15T14:54:30.724Z,99837.78
2022-12-15T14:55:35.302Z,99833.03
2022-12-15T14:56:37.924Z,99829.16
2022-12-15T14:57:44.245Z,99820.72
2022-12-15T14:58:47.333Z,99817.13
2022-12-15T14:59:53.035Z,99814.00
2022-12-15T15:00:57.324Z,99814.00
2022-12-15T15:02:03.778Z,99814.03
2022-12-15T15:03:10.416Z,99829.25
2022-12-15T15:03:20.298Z,99817.91
2022-12-15T15:04:26.279Z,99816.22
2022-12-15T15:05:29.180Z,99813.44
2022-12-15T15:06:37.468Z,99814.38
2022-12-15T15:07:40.752Z,99817.63
2022-12-15T15:08:46.397Z,99812.91
2022-12-15T15:09:49.133Z,99812.09
2022-12-15T15:10:54.181Z,99809.09
2022-12-15T15:12:00.806Z,99810.78
2022-12-15T15:13:04.081Z,99815.50
2022-12-15T15:14:10.884Z,99814.28
2022-12-15T15:15:19.556Z,99816.53
2022-12-15T15:16:21.326Z,99814.06
2022-12-15T15:17:27.175Z,99808.31
2022-12-15T15:18:29.794Z,99814.47
2022-12-15T15:19:39.096Z,99811.38
2022-12-15T15:20:42.273Z,99810.78
2022-12-15T15:21:45.745Z,99814.81
2022-12-15T15:23:03.844Z,99813.56
2022-12-15T15:24:26.012Z,99814.25
2022-12-15T15:25:39.949Z,99817.53
2022-12-15T15:26:44.123Z,99812.00
2022-12-15T15:27:46.829Z,99813.44
2022-12-15T15:28:49.463Z,99817.19
2022-12-15T15:29:51.496Z,99813.06
2022-12-15T15:30:58.049Z,99811.88
2022-12-15T15:32:07.717Z,99815.78
2022-12-15T15:33:12.805Z,99819.06
2022-12-15T15:34:15.550Z,99817.59
2022-12-15T15:35:17.517Z,99813.50
2022-12-15T15:36:20.200Z,99820.75
2022-12-15T15:37:26.392Z,99820.44
2022-12-15T15:38:34.885Z,99812.53
2022-12-15T15:39:38.302Z,99818.63
2022-12-15T15:40:41.339Z,99820.75
2022-12-15T15:41:43.936Z,99830.47
2022-12-15T15:42:46.777Z,99831.72
2022-12-15T15:43:49.364Z,99832.81
2022-12-15T15:44:51.933Z,99832.97
2022-12-15T15:46:02.751Z,99832.72
2022-12-15T15:47:05.986Z,99822.94
2022-12-15T15:48:11.868Z,99829.50
2022-12-15T15:49:17.905Z,99823.00
2022-12-15T15:50:27.719Z,99840.66
2022-12-15T15:51:32.955Z,99839.88
2022-12-15T15:52:34.716Z,99839.06
2022-12-15T15:53:38.703Z,99839.88
2022-12-15T15:54:40.400Z,99840.47
2022-12-15T15:55:44.257Z,99837.75
2022-12-15T15:56:46.272Z,99843.88
2022-12-15T15:57:48.831Z,99855.34
2022-12-15T15:58:51.489Z,99848.56
2022-12-15T15:59:54.078Z,99848.97
2022-12-15T16:00:58.121Z,99850.91
2022-12-15T16:02:00.642Z,99859.41
2022-12-15T16:03:03.508Z,99853.31
2022-12-15T16:04:07.463Z,99859.81
2022-12-15T16:05:10.420Z,99853.41
2022-12-15T16:06:17.961Z,99859.78
2022-12-15T16:07:25.210Z,99862.19
2022-12-15T16:08:32.940Z,99863.25
2022-12-15T16:09:35.843Z,99856.81
2022-12-15T16:10:38.498Z,99853.78
2022-12-15T16:11:40.526Z,99853.53
2022-12-15T16:12:46.485Z,99862.50
2022-12-15T16:13:48.774Z,99853.59
2022-12-15T16:14:51.563Z,99858.19
2022-12-15T16:15:54.250Z,99862.19
2022-12-15T16:16:57.629Z,99859.75
2022-12-15T16:18:00.428Z,99860.44
2022-12-15T16:19:03.433Z,99860.66
2022-12-15T16:20:07.274Z,99871.31
2022-12-15T16:21:13.979Z,99864.38
2022-12-15T16:22:18.387Z,99862.44
2022-12-15T16:23:23.733Z,99858.00
2022-12-15T16:24:25.640Z,99859.75
2022-12-15T16:25:39.019Z,99858.59
2022-12-15T16:26:50.018Z,99866.03
2022-12-15T16:27:51.624Z,99867.13
2022-12-15T16:28:54.217Z,99874.06
2022-12-15T16:29:55.956Z,99876.09
2022-12-15T16:31:01.267Z,99878.44
2022-12-15T16:32:04.685Z,99878.03
2022-12-15T16:33:07.591Z,99878.84
2022-12-15T16:34:09.388Z,99880.88
2022-12-15T16:35:12.758Z,99885.56
2022-12-15T16:36:15.427Z,99880.72
2022-12-15T16:37:25.818Z,99882.25
2022-12-15T16:38:31.098Z,99879.97
2022-12-15T16:39:35.019Z,99875.41
2022-12-15T16:40:39.596Z,99881.22
2022-12-15T16:41:41.168Z,99884.94
2022-12-15T16:42:43.998Z,99889.69
2022-12-15T16:43:48.305Z,99886.56
2022-12-15T16:44:51.302Z,99894.75
2022-12-15T16:45:54.557Z,99890.06
2022-12-15T16:46:59.102Z,99895.41
2022-12-15T16:48:03.987Z,99904.34
2022-12-15T16:49:05.893Z,99898.13
2022-12-15T16:50:13.355Z,99898.22
2022-12-15T16:51:27.167Z,99898.25
2022-12-15T16:52:30.100Z,99906.25
2022-12-15T16:53:35.302Z,99897.94
2022-12-15T16:54:37.016Z,99899.16
2022-12-15T16:55:40.278Z,99900.78
2022-12-15T16:56:43.794Z,99899.97
2022-12-15T16:57:47.417Z,99908.06
2022-12-15T16:58:57.420Z,99894.31
2022-12-15T17:00:16.431Z,99901.00
2022-12-15T17:01:18.125Z,99892.16
2022-12-15T17:02:27.236Z,99889.84
2022-12-15T17:03:31.931Z,99887.00
2022-12-15T17:04:33.723Z,99888.13
2022-12-15T17:05:37.533Z,99886.56
2022-12-15T17:06:39.477Z,99882.44
2022-12-15T17:07:43.121Z,99879.56
2022-12-15T17:08:49.065Z,99884.53
2022-12-15T17:09:51.107Z,99879.81
2022-12-15T17:10:54.503Z,99884.31
2022-12-15T17:11:58.113Z,99881.78
2022-12-15T17:13:05.760Z,99875.78
2022-12-15T17:14:11.317Z,99875.38
2022-12-15T17:15:22.901Z,99868.97
2022-12-15T17:16:27.013Z,99877.13
2022-12-15T17:17:31.164Z,99869.41
2022-12-15T17:18:35.310Z,99874.59
2022-12-15T17:19:37.180Z,99871.75
2022-12-15T17:20:54.290Z,99873.75
2022-12-15T17:21:57.613Z,99874.47
2022-12-15T17:23:03.807Z,99868.16
2022-12-15T17:24:10.074Z,99864.91
2022-12-15T17:25:27.395Z,99862.97
2022-12-15T17:26:43.295Z,99852.72
2022-12-15T17:27:47.545Z,99851.09
2022-12-15T17:28:50.674Z,99851.75
2022-12-15T17:29:53.349Z,99849.75
2022-12-15T17:30:57.536Z,99849.25
2022-12-15T17:31:59.634Z,99854.88
2022-12-15T17:33:02.288Z,99856.97
2022-12-15T17:34:28.358Z,99854.50
2022-12-15T17:35:30.958Z,99856.69
2022-12-15T17:36:32.803Z,99861.22
2022-12-15T17:37:35.672Z,99863.25
2022-12-15T17:38:38.352Z,99858.97
2022-12-15T17:39:41.922Z,99861.63
2022-12-15T17:40:44.813Z,99859.03
2022-12-15T17:42:04.339Z,99860.38
2022-12-15T17:43:13.828Z,99863.16
2022-12-15T17:44:38.373Z,99866.69
2022-12-15T17:45:41.699Z,99867.25
2022-12-15T17:46:44.361Z,99862.34
2022-12-15T17:47:47.507Z,99871.28
2022-12-15T17:48:50.252Z,99870.78
2022-12-15T17:49:54.171Z,99872.81
2022-12-15T17:50:56.763Z,99877.22
2022-12-15T17:52:01.660Z,99874.81
2022-12-15T17:53:06.277Z,99870.91
2022-12-15T17:54:09.821Z,99878.13
2022-12-15T17:55:20.270Z,99874.75
2022-12-15T17:56:22.886Z,99881.53
2022-12-15T17:57:25.785Z,99888.59
2022-12-15T17:58:28.453Z,99885.38
2022-12-15T17:59:33.621Z,99883.75
2022-12-15T18:00:44.464Z,99883.88
2022-12-15T18:01:52.132Z,99880.28
2022-12-15T18:02:59.158Z,99880.28
2022-12-15T18:04:05.029Z,99885.88
2022-12-15T18:05:09.342Z,99877.72
2022-12-15T18:06:15.386Z,99880.19
2022-12-15T18:07:19.831Z,99882.00
2022-12-15T18:08:24.308Z,99876.97
2022-12-15T18:09:29.514Z,99886.31
2022-12-15T18:10:34.539Z,99888.50
2022-12-15T18:11:37.083Z,99889.88
2022-12-15T18:12:38.704Z,99888.38
2022-12-15T18:13:42.059Z,99892.53
2022-12-15T18:14:44.495Z,99888.56
2022-12-15T18:15:50.255Z,99884.78
2022-12-15T18:16:52.017Z,99893.53
2022-12-15T18:17:54.664Z,99894.22
2022-12-15T18:18:57.430Z,99890.91
2022-12-15T18:19:58.986Z,99892.53
2022-12-15T18:21:09.006Z,99899.16
2022-12-15T18:22:13.382Z,99893.22
2022-12-15T18:23:17.822Z,99892.22
2022-12-15T18:24:21.568Z,99885.97
2022-12-15T18:25:26.868Z,99890.41
2022-12-15T18:26:28.733Z,99892.88
2022-12-15T18:27:31.372Z,99897.19
2022-12-15T18:28:37.944Z,99900.47
2022-12-15T18:29:39.520Z,99899.19
2022-12-15T18:30:42.204Z,99909.75
2022-12-15T18:31:45.435Z,99910.38
2022-12-15T18:32:48.779Z,99906.50
2022-12-15T18:33:51.518Z,99909.34
2022-12-15T18:34:53.869Z,99905.13
2022-12-15T18:35:56.514Z,99898.75
2022-12-15T18:36:59.532Z,99901.00
2022-12-15T18:38:02.156Z,99896.31
2022-12-15T18:39:17.018Z,99902.47
2022-12-15T18:40:21.952Z,99904.53
2022-12-15T18:41:24.617Z,99900.50
2022-12-15T18:42:26.272Z,99897.75
2022-12-15T18:43:32.166Z,99892.47
2022-12-15T18:44:34.437Z,99896.78
2022-12-15T18:45:37.032Z,99904.66
2022-12-15T18:46:42.058Z,99906.53
2022-12-15T18:47:49.404Z,99905.09
2022-12-15T18:48:55.980Z,99905.50
2022-12-15T18:49:57.623Z,99906.22
2022-12-15T18:51:03.394Z,99900.34
2022-12-15T18:52:13.633Z,99896.09
2022-12-15T18:53:19.698Z,99894.09
2022-12-15T18:54:23.371Z,99900.91
2022-12-15T18:55:28.301Z,99903.63
2022-12-15T18:56:30.994Z,99904.28
2022-12-15T18:57:35.880Z,99905.63
2022-12-15T18:58:40.359Z,99900.91
2022-12-15T18:59:41.937Z,99907.16
2022-12-15T19:00:45.127Z,99911.19
2022-12-15T19:01:49.368Z,99910.00
2022-12-15T19:02:53.168Z,99915.44
2022-12-15T19:03:56.054Z,99912.28
2022-12-15T19:04:57.758Z,99913.34
2022-12-15T19:06:03.147Z,99909.34
2022-12-15T19:07:07.645Z,99912.25
2022-12-15T19:08:13.267Z,99918.38
2022-12-15T19:09:19.698Z,99919.81
2022-12-15T19:10:21.376Z,99911.88
2022-12-15T19:11:31.131Z,99908.41
2022-12-15T19:12:32.851Z,99910.97
2022-12-15T19:13:38.827Z,99908.44
2022-12-15T19:14:40.501Z,99895.25
2022-12-15T19:15:43.737Z,99894.09
2022-12-15T19:17:06.580Z,99898.56
2022-12-15T19:18:32.247Z,99888.66
2022-12-15T19:19:54.685Z,99895.38
2022-12-15T19:21:14.806Z,99899.88
2022-12-15T19:22:28.017Z,99902.63
2022-12-15T19:23:31.128Z,99891.78
2022-12-15T19:24:51.688Z,99892.38
2022-12-15T19:25:55.146Z,99892.06
2022-12-15T19:26:56.732Z,99888.56
2022-12-15T19:28:01.284Z,99888.97
2022-12-15T19:29:15.837Z,99894.72
2022-12-15T19:30:20.663Z,99891.75
2022-12-15T19:31:23.281Z,99891.09
2022-12-15T19:32:25.757Z,99894.75
2022-12-15T19:33:28.377Z,99890.38
2022-12-15T19:34:31.242Z,99884.44
2022-12-15T19:35:33.371Z,99880.22
2022-12-15T19:36:37.082Z,99881.94
2022-12-15T19:37:45.523Z,99881.41
2022-12-15T19:38:48.395Z,99878.75
2022-12-15T19:39:50.549Z,99877.47
2022-12-15T19:40:54.717Z,99884.00
2022-12-15T19:41:57.436Z,99881.63
2022-12-15T19:43:00.233Z,99886.53
2022-12-15T19:44:02.989Z,99887.56
2022-12-15T19:45:14.927Z,99885.28
2022-12-15T19:46:19.759Z,99882.31
2022-12-15T19:47:21.350Z,99886.28
2022-12-15T19:48:24.610Z,99883.59
2022-12-15T19:49:26.265Z,99880.56
2022-12-15T19:50:36.236Z,99881.66
2022-12-15T19:51:40.673Z,99887.06
2022-12-15T19:52:47.160Z,99885.44
2022-12-15T19:53:50.669Z,99887.25
2022-12-15T19:54:52.334Z,99877.03
2022-12-15T19:55:57.838Z,99882.72
2022-12-15T19:56:59.617Z,99880.34
2022-12-15T19:58:06.534Z,99878.34
2022-12-15T19:59:18.238Z,99875.47
2022-12-15T20:00:22.039Z,99890.06
2022-12-15T20:01:24.738Z,99878.63
2022-12-15T20:02:26.582Z,99879.41
2022-12-15T20:03:31.113Z,99883.28
2022-12-15T20:04:34.004Z,99882.00
2022-12-15T20:05:36.936Z,99877.22
2022-12-15T20:06:40.622Z,99874.91
2022-12-15T20:07:43.883Z,99878.03
2022-12-15T20:08:48.693Z,99876.06
2022-12-15T20:09:50.372Z,99876.56
2022-12-15T20:10:54.936Z,99872.44
2022-12-15T20:11:56.546Z,99871.59
2022-12-15T20:12:59.623Z,99877.69
2022-12-15T20:14:03.093Z,99878.03
2022-12-15T20:15:15.757Z,99866.66
2022-12-15T20:16:20.704Z,99873.56
2022-12-15T20:17:22.311Z,99871.41
2022-12-15T20:18:24.910Z,99867.97
2022-12-15T20:19:27.490Z,99862.91
2022-12-15T20:20:30.966Z,99861.81
2022-12-15T20:21:37.092Z,99862.91
2022-12-15T20:22:38.754Z,99865.78
2022-12-15T20:23:50.311Z,99855.97
2022-12-15T20:24:52.995Z,99856.47
2022-12-15T20:25:56.265Z,99862.72
2022-12-15T20:26:58.214Z,99852.59
2022-12-15T20:28:01.502Z,99849.56
2022-12-15T20:29:04.414Z,99856.41
2022-12-15T20:30:08.753Z,99843.81
2022-12-15T20:31:15.897Z,99839.38
2022-12-15T20:32:20.771Z,99851.75
2022-12-15T20:33:23.578Z,99847.94
2022-12-15T20:34:25.364Z,99852.09
2022-12-15T20:35:28.506Z,99852.78
2022-12-15T20:36:31.577Z,99847.97
2022-12-15T20:37:33.288Z,99843.19
2022-12-15T20:38:36.915Z,99846.34